Terminal Aerodrome Forecast
Issued by NWS Twin Cities, MN

Home | Current Version | Previous Version | Text Only | Print | Product List | Glossary Off
Versions: 1 2 3 4 5 6 7 8 9 10 11 12 13 14 15

000
FTUS43 KMPX 281543 AAB
TAFEAU
TAF AMD
KEAU 281543Z 2816/2912 17009KT 6SM -RA BKN060
     FM281800 17015G22KT P6SM SCT020 OVC035
     FM290100 20012KT P6SM VCTS BKN040CB
     FM290500 25006KT P6SM BKN250=

USA.gov is the U.S. government's official web portal to all federal, state and local government web resources and services.